sensor_id;sensor_type;location;lat;lon;timestamp;temperature;humidity
60860;DHT22;46694;54.382;9.708;2023-07-20T00:02:27;14.80;99.90
60860;DHT22;46694;54.382;9.708;2023-07-20T00:05:06;14.70;99.90
60860;DHT22;46694;54.382;9.708;2023-07-20T00:07:46;14.70;99.90
60860;DHT22;46694;54.382;9.708;2023-07-20T00:10:25;14.70;99.90
60860;DHT22;46694;54.382;9.708;2023-07-20T00:13:05;14.60;99.90
60860;DHT22;46694;54.382;9.708;2023-07-20T00:15:44;14.60;99.90
60860;DHT22;46694;54.382;9.708;2023-07-20T00:18:24;14.60;99.90
60860;DHT22;46694;54.382;9.708;2023-07-20T00:21:04;14.50;99.90
60860;DHT22;46694;54.382;9.708;2023-07-20T00:23:43;14.50;99.90
60860;DHT22;46694;54.382;9.708;2023-07-20T00:26:23;14.50;99.90
60860;DHT22;46694;54.382;9.708;2023-07-20T00:29:02;14.50;99.90
60860;DHT22;46694;54.382;9.708;2023-07-20T00:31:42;14.50;99.90
60860;DHT22;46694;54.382;9.708;2023-07-20T00:34:22;14.50;99.90
60860;DHT22;46694;54.382;9.708;2023-07-20T00:37:02;14.50;99.90
60860;DHT22;46694;54.382;9.708;2023-07-20T00:39:41;14.50;99.90
60860;DHT22;46694;54.382;9.708;2023-07-20T00:42:21;14.50;99.90
60860;DHT22;46694;54.382;9.708;2023-07-20T00:45:00;14.50;99.90
60860;DHT22;46694;54.382;9.708;2023-07-20T00:47:40;14.50;99.90
60860;DHT22;46694;54.382;9.708;2023-07-20T00:50:20;14.40;99.90
60860;DHT22;46694;54.382;9.708;2023-07-20T00:52:59;14.40;99.90
60860;DHT22;46694;54.382;9.708;2023-07-20T00:55:39;14.40;99.90
60860;DHT22;46694;54.382;9.708;2023-07-20T00:58:19;14.40;99.90
60860;DHT22;46694;54.382;9.708;2023-07-20T01:00:58;14.30;99.90
60860;DHT22;46694;54.382;9.708;2023-07-20T01:03:38;14.30;99.90
60860;DHT22;46694;54.382;9.708;2023-07-20T01:06:24;14.30;99.90
60860;DHT22;46694;54.382;9.708;2023-07-20T01:09:39;14.30;99.90
60860;DHT22;46694;54.382;9.708;2023-07-20T01:12:52;14.20;99.90
60860;DHT22;46694;54.382;9.708;2023-07-20T01:15:34;14.20;99.90
60860;DHT22;46694;54.382;9.708;2023-07-20T01:18:13;14.20;99.90
60860;DHT22;46694;54.382;9.708;2023-07-20T01:21:05;14.20;99.90
60860;DHT22;46694;54.382;9.708;2023-07-20T01:30:50;14.00;99.90
60860;DHT22;46694;54.382;9.708;2023-07-20T01:33:35;14.00;99.90
60860;DHT22;46694;54.382;9.708;2023-07-20T01:36:17;13.90;99.90
60860;DHT22;46694;54.382;9.708;2023-07-20T01:38:57;13.90;99.90
60860;DHT22;46694;54.382;9.708;2023-07-20T01:41:36;13.90;99.90
60860;DHT22;46694;54.382;9.708;2023-07-20T01:44:16;13.90;99.90
60860;DHT22;46694;54.382;9.708;2023-07-20T01:46:56;13.90;99.90
60860;DHT22;46694;54.382;9.708;2023-07-20T01:49:36;13.80;99.90
60860;DHT22;46694;54.382;9.708;2023-07-20T01:52:15;13.80;99.90
60860;DHT22;46694;54.382;9.708;2023-07-20T01:54:55;13.90;99.90
60860;DHT22;46694;54.382;9.708;2023-07-20T01:57:34;13.90;99.90
60860;DHT22;46694;54.382;9.708;2023-07-20T02:00:14;13.90;99.90
60860;DHT22;46694;54.382;9.708;2023-07-20T02:02:54;13.90;99.90
60860;DHT22;46694;54.382;9.708;2023-07-20T02:05:34;13.90;99.90
60860;DHT22;46694;54.382;9.708;2023-07-20T02:08:13;13.90;99.90
60860;DHT22;46694;54.382;9.708;2023-07-20T02:10:53;14.00;99.90
60860;DHT22;46694;54.382;9.708;2023-07-20T02:13:32;14.00;99.90
60860;DHT22;46694;54.382;9.708;2023-07-20T02:16:12;13.90;99.90
60860;DHT22;46694;54.382;9.708;2023-07-20T02:18:52;13.90;99.90
60860;DHT22;46694;54.382;9.708;2023-07-20T02:21:32;13.90;99.90
60860;DHT22;46694;54.382;9.708;2023-07-20T02:24:13;13.90;99.90
60860;DHT22;46694;54.382;9.708;2023-07-20T02:26:52;13.90;99.90
60860;DHT22;46694;54.382;9.708;2023-07-20T02:29:32;13.90;99.90
60860;DHT22;46694;54.382;9.708;2023-07-20T02:32:11;13.90;99.90
60860;DHT22;46694;54.382;9.708;2023-07-20T02:34:51;13.90;99.90
60860;DHT22;46694;54.382;9.708;2023-07-20T02:37:31;13.90;99.90
60860;DHT22;46694;54.382;9.708;2023-07-20T02:40:13;13.90;99.90
60860;DHT22;46694;54.382;9.708;2023-07-20T02:42:53;13.80;99.90
60860;DHT22;46694;54.382;9.708;2023-07-20T02:45:32;13.80;99.90
60860;DHT22;46694;54.382;9.708;2023-07-20T02:48:12;13.80;99.90
60860;DHT22;46694;54.382;9.708;2023-07-20T02:50:52;13.70;99.90
60860;DHT22;46694;54.382;9.708;2023-07-20T02:53:31;13.70;99.90
60860;DHT22;46694;54.382;9.708;2023-07-20T02:56:11;13.70;99.90
60860;DHT22;46694;54.382;9.708;2023-07-20T02:58:51;13.60;99.90
60860;DHT22;46694;54.382;9.708;2023-07-20T03:01:31;13.60;99.90
60860;DHT22;46694;54.382;9.708;2023-07-20T03:04:11;13.60;99.90
60860;DHT22;46694;54.382;9.708;2023-07-20T03:06:50;13.60;99.90
60860;DHT22;46694;54.382;9.708;2023-07-20T03:09:30;13.60;99.90
60860;DHT22;46694;54.382;9.708;2023-07-20T03:12:10;13.60;99.90
60860;DHT22;46694;54.382;9.708;2023-07-20T03:14:49;13.60;99.90
60860;DHT22;46694;54.382;9.708;2023-07-20T03:17:29;13.60;99.90
60860;DHT22;46694;54.382;9.708;2023-07-20T03:20:09;13.60;99.90
60860;DHT22;46694;54.382;9.708;2023-07-20T03:22:49;13.60;99.90
60860;DHT22;46694;54.382;9.708;2023-07-20T03:25:29;13.50;99.90
60860;DHT22;46694;54.382;9.708;2023-07-20T03:28:08;13.50;99.90
60860;DHT22;46694;54.382;9.708;2023-07-20T03:30:56;13.50;99.90
60860;DHT22;46694;54.382;9.708;2023-07-20T03:33:35;13.50;99.90
60860;DHT22;46694;54.382;9.708;2023-07-20T03:36:15;13.40;99.90
60860;DHT22;46694;54.382;9.708;2023-07-20T03:38:55;13.40;99.90
60860;DHT22;46694;54.382;9.708;2023-07-20T03:41:34;13.40;99.90
60860;DHT22;46694;54.382;9.708;2023-07-20T03:44:14;13.40;99.90
60860;DHT22;46694;54.382;9.708;2023-07-20T03:46:53;13.40;99.90
60860;DHT22;46694;54.382;9.708;2023-07-20T03:49:33;13.40;99.90
60860;DHT22;46694;54.382;9.708;2023-07-20T03:52:13;13.40;99.90
60860;DHT22;46694;54.382;9.708;2023-07-20T03:54:52;13.40;99.90
60860;DHT22;46694;54.382;9.708;2023-07-20T03:57:32;13.40;99.90
60860;DHT22;46694;54.382;9.708;2023-07-20T04:00:12;13.40;99.90
60860;DHT22;46694;54.382;9.708;2023-07-20T04:02:53;13.40;99.90
60860;DHT22;46694;54.382;9.708;2023-07-20T04:05:33;13.50;99.90
60860;DHT22;46694;54.382;9.708;2023-07-20T04:08:13;13.50;99.90
60860;DHT22;46694;54.382;9.708;2023-07-20T04:10:52;13.60;99.90
60860;DHT22;46694;54.382;9.708;2023-07-20T04:13:32;13.70;99.90
60860;DHT22;46694;54.382;9.708;2023-07-20T04:16:14;13.90;99.90
60860;DHT22;46694;54.382;9.708;2023-07-20T04:18:57;14.10;99.90
60860;DHT22;46694;54.382;9.708;2023-07-20T04:21:40;14.30;99.90
60860;DHT22;46694;54.382;9.708;2023-07-20T04:24:20;14.40;99.90
60860;DHT22;46694;54.382;9.708;2023-07-20T04:27:00;14.60;99.90
60860;DHT22;46694;54.382;9.708;2023-07-20T04:29:39;14.70;99.90
60860;DHT22;46694;54.382;9.708;2023-07-20T04:32:19;14.80;99.90
60860;DHT22;46694;54.382;9.708;2023-07-20T04:34:59;14.90;99.90
60860;DHT22;46694;54.382;9.708;2023-07-20T04:37:39;15.00;99.90
60860;DHT22;46694;54.382;9.708;2023-07-20T04:40:24;15.20;99.90
60860;DHT22;46694;54.382;9.708;2023-07-20T04:43:03;15.50;99.90
60860;DHT22;46694;54.382;9.708;2023-07-20T04:45:43;15.60;99.90
60860;DHT22;46694;54.382;9.708;2023-07-20T04:48:23;15.80;99.90
60860;DHT22;46694;54.382;9.708;2023-07-20T04:51:02;15.90;99.90
60860;DHT22;46694;54.382;9.708;2023-07-20T04:53:42;16.00;99.90
60860;DHT22;46694;54.382;9.708;2023-07-20T04:56:22;15.90;99.90
60860;DHT22;46694;54.382;9.708;2023-07-20T04:59:14;15.90;99.90
60860;DHT22;46694;54.382;9.708;2023-07-20T05:01:54;15.90;99.90
60860;DHT22;46694;54.382;9.708;2023-07-20T05:04:33;16.20;99.90
60860;DHT22;46694;54.382;9.708;2023-07-20T05:07:13;16.40;99.90
60860;DHT22;46694;54.382;9.708;2023-07-20T05:09:53;16.50;99.90
60860;DHT22;46694;54.382;9.708;2023-07-20T05:12:33;16.40;99.90
60860;DHT22;46694;54.382;9.708;2023-07-20T05:15:12;16.30;99.90
60860;DHT22;46694;54.382;9.708;2023-07-20T05:17:52;16.30;99.90
60860;DHT22;46694;54.382;9.708;2023-07-20T05:20:32;16.40;99.90
60860;DHT22;46694;54.382;9.708;2023-07-20T05:23:12;16.70;99.90
60860;DHT22;46694;54.382;9.708;2023-07-20T05:25:59;16.90;99.90
60860;DHT22;46694;54.382;9.708;2023-07-20T05:28:38;17.10;99.90
60860;DHT22;46694;54.382;9.708;2023-07-20T05:31:18;17.10;99.90
60860;DHT22;46694;54.382;9.708;2023-07-20T05:33:58;16.90;99.90
60860;DHT22;46694;54.382;9.708;2023-07-20T05:36:37;16.70;99.90
60860;DHT22;46694;54.382;9.708;2023-07-20T05:39:17;16.60;99.90
60860;DHT22;46694;54.382;9.708;2023-07-20T05:41:57;16.70;99.90
60860;DHT22;46694;54.382;9.708;2023-07-20T05:44:37;16.80;99.90
60860;DHT22;46694;54.382;9.708;2023-07-20T05:47:16;17.00;99.90
60860;DHT22;46694;54.382;9.708;2023-07-20T05:49:56;17.30;99.90
60860;DHT22;46694;54.382;9.708;2023-07-20T05:52:42;17.70;99.90
60860;DHT22;46694;54.382;9.708;2023-07-20T05:55:22;18.10;99.90
60860;DHT22;46694;54.382;9.708;2023-07-20T05:58:01;18.50;99.90
60860;DHT22;46694;54.382;9.708;2023-07-20T06:00:41;18.90;99.90
60860;DHT22;46694;54.382;9.708;2023-07-20T06:03:22;19.00;99.90
60860;DHT22;46694;54.382;9.708;2023-07-20T06:06:02;19.30;99.90
60860;DHT22;46694;54.382;9.708;2023-07-20T06:08:41;19.40;99.90
60860;DHT22;46694;54.382;9.708;2023-07-20T06:11:21;19.80;99.90
60860;DHT22;46694;54.382;9.708;2023-07-20T06:14:00;20.20;99.90
60860;DHT22;46694;54.382;9.708;2023-07-20T06:16:40;20.20;99.90
60860;DHT22;46694;54.382;9.708;2023-07-20T06:19:20;20.30;99.90
60860;DHT22;46694;54.382;9.708;2023-07-20T06:22:01;20.60;99.90
60860;DHT22;46694;54.382;9.708;2023-07-20T06:24:41;20.90;99.90
60860;DHT22;46694;54.382;9.708;2023-07-20T06:27:21;21.30;99.90
60860;DHT22;46694;54.382;9.708;2023-07-20T06:30:00;21.60;99.90
60860;DHT22;46694;54.382;9.708;2023-07-20T06:32:40;21.60;99.90
60860;DHT22;46694;54.382;9.708;2023-07-20T06:35:20;22.00;99.90
60860;DHT22;46694;54.382;9.708;2023-07-20T06:37:59;22.40;99.90
60860;DHT22;46694;54.382;9.708;2023-07-20T06:40:39;22.40;99.90
60860;DHT22;46694;54.382;9.708;2023-07-20T06:43:19;22.20;99.90
60860;DHT22;46694;54.382;9.708;2023-07-20T06:45:59;21.60;99.90
60860;DHT22;46694;54.382;9.708;2023-07-20T06:48:38;21.20;99.90
60860;DHT22;46694;54.382;9.708;2023-07-20T06:51:18;20.70;99.90
60860;DHT22;46694;54.382;9.708;2023-07-20T06:53:58;20.40;99.90
60860;DHT22;46694;54.382;9.708;2023-07-20T06:56:37;20.10;99.90
60860;DHT22;46694;54.382;9.708;2023-07-20T06:59:17;19.90;99.90
60860;DHT22;46694;54.382;9.708;2023-07-20T07:01:56;20.10;99.90
60860;DHT22;46694;54.382;9.708;2023-07-20T07:04:36;20.40;99.90
60860;DHT22;46694;54.382;9.708;2023-07-20T07:07:16;20.70;99.90
60860;DHT22;46694;54.382;9.708;2023-07-20T07:09:55;20.70;99.90
60860;DHT22;46694;54.382;9.708;2023-07-20T07:12:35;20.40;99.90
60860;DHT22;46694;54.382;9.708;2023-07-20T07:15:17;20.30;99.90
60860;DHT22;46694;54.382;9.708;2023-07-20T07:17:56;20.10;99.90
60860;DHT22;46694;54.382;9.708;2023-07-20T07:20:38;19.70;99.90
60860;DHT22;46694;54.382;9.708;2023-07-20T07:23:18;19.50;99.90
60860;DHT22;46694;54.382;9.708;2023-07-20T07:25:57;19.70;99.90
60860;DHT22;46694;54.382;9.708;2023-07-20T07:28:37;20.40;99.90
60860;DHT22;46694;54.382;9.708;2023-07-20T07:31:16;20.90;99.90
60860;DHT22;46694;54.382;9.708;2023-07-20T07:34:00;21.20;99.90
60860;DHT22;46694;54.382;9.708;2023-07-20T07:36:40;21.80;99.90
60860;DHT22;46694;54.382;9.708;2023-07-20T07:39:19;21.90;99.90
60860;DHT22;46694;54.382;9.708;2023-07-20T07:41:59;21.40;99.90
60860;DHT22;46694;54.382;9.708;2023-07-20T07:44:39;20.90;99.90
60860;DHT22;46694;54.382;9.708;2023-07-20T07:47:18;21.00;99.90
60860;DHT22;46694;54.382;9.708;2023-07-20T07:49:58;21.50;99.90
60860;DHT22;46694;54.382;9.708;2023-07-20T07:52:37;22.10;99.90
60860;DHT22;46694;54.382;9.708;2023-07-20T07:55:17;22.30;99.90
60860;DHT22;46694;54.382;9.708;2023-07-20T07:57:57;22.20;99.90
60860;DHT22;46694;54.382;9.708;2023-07-20T08:00:36;22.00;99.90
60860;DHT22;46694;54.382;9.708;2023-07-20T08:03:16;21.20;99.90
60860;DHT22;46694;54.382;9.708;2023-07-20T08:05:56;20.50;99.90
60860;DHT22;46694;54.382;9.708;2023-07-20T08:08:35;19.90;99.90
60860;DHT22;46694;54.382;9.708;2023-07-20T08:11:15;19.60;99.90
60860;DHT22;46694;54.382;9.708;2023-07-20T08:13:55;19.80;99.90
60860;DHT22;46694;54.382;9.708;2023-07-20T08:16:35;20.10;99.90
60860;DHT22;46694;54.382;9.708;2023-07-20T08:19:14;20.20;99.90
60860;DHT22;46694;54.382;9.708;2023-07-20T08:21:54;20.30;99.90
60860;DHT22;46694;54.382;9.708;2023-07-20T08:24:33;20.60;99.90
60860;DHT22;46694;54.382;9.708;2023-07-20T08:27:13;21.00;99.90
60860;DHT22;46694;54.382;9.708;2023-07-20T08:29:52;21.30;99.90
60860;DHT22;46694;54.382;9.708;2023-07-20T08:32:32;21.70;99.90
60860;DHT22;46694;54.382;9.708;2023-07-20T08:35:12;22.30;99.90
60860;DHT22;46694;54.382;9.708;2023-07-20T08:37:52;23.10;99.90
60860;DHT22;46694;54.382;9.708;2023-07-20T08:40:32;23.40;99.90
60860;DHT22;46694;54.382;9.708;2023-07-20T08:43:13;23.60;99.90
60860;DHT22;46694;54.382;9.708;2023-07-20T08:45:56;23.90;99.90
60860;DHT22;46694;54.382;9.708;2023-07-20T08:48:36;24.50;99.90
60860;DHT22;46694;54.382;9.708;2023-07-20T08:51:16;25.00;99.90
60860;DHT22;46694;54.382;9.708;2023-07-20T08:53:56;25.40;99.90
60860;DHT22;46694;54.382;9.708;2023-07-20T08:56:37;24.80;99.90
60860;DHT22;46694;54.382;9.708;2023-07-20T08:59:18;23.90;99.90
60860;DHT22;46694;54.382;9.708;2023-07-20T09:01:59;23.30;99.90
60860;DHT22;46694;54.382;9.708;2023-07-20T09:04:39;22.90;99.90
60860;DHT22;46694;54.382;9.708;2023-07-20T09:07:19;22.50;99.90
60860;DHT22;46694;54.382;9.708;2023-07-20T09:09:59;22.00;99.90
60860;DHT22;46694;54.382;9.708;2023-07-20T09:12:40;21.60;99.90
60860;DHT22;46694;54.382;9.708;2023-07-20T09:15:23;21.30;99.90
60860;DHT22;46694;54.382;9.708;2023-07-20T09:18:03;21.00;99.90
60860;DHT22;46694;54.382;9.708;2023-07-20T09:20:44;20.80;99.90
60860;DHT22;46694;54.382;9.708;2023-07-20T09:23:38;21.00;99.90
60860;DHT22;46694;54.382;9.708;2023-07-20T09:26:18;21.20;99.90
60860;DHT22;46694;54.382;9.708;2023-07-20T09:28:58;21.30;99.90
60860;DHT22;46694;54.382;9.708;2023-07-20T09:31:38;21.60;99.90
60860;DHT22;46694;54.382;9.708;2023-07-20T09:34:20;22.00;99.90
60860;DHT22;46694;54.382;9.708;2023-07-20T09:37:00;22.30;99.90
60860;DHT22;46694;54.382;9.708;2023-07-20T09:39:44;22.80;99.90
60860;DHT22;46694;54.382;9.708;2023-07-20T09:42:25;23.30;99.90
60860;DHT22;46694;54.382;9.708;2023-07-20T09:45:07;24.10;99.90
60860;DHT22;46694;54.382;9.708;2023-07-20T09:47:48;24.60;99.90
60860;DHT22;46694;54.382;9.708;2023-07-20T09:50:27;25.00;99.90
60860;DHT22;46694;54.382;9.708;2023-07-20T09:53:09;24.60;99.90
60860;DHT22;46694;54.382;9.708;2023-07-20T09:55:52;23.60;99.90
60860;DHT22;46694;54.382;9.708;2023-07-20T09:58:33;22.80;99.90
60860;DHT22;46694;54.382;9.708;2023-07-20T10:01:18;22.10;99.90
60860;DHT22;46694;54.382;9.708;2023-07-20T10:04:03;21.50;99.90
60860;DHT22;46694;54.382;9.708;2023-07-20T10:06:46;21.30;99.90
60860;DHT22;46694;54.382;9.708;2023-07-20T10:09:27;21.50;99.90
60860;DHT22;46694;54.382;9.708;2023-07-20T10:12:07;21.90;99.90
60860;DHT22;46694;54.382;9.708;2023-07-20T10:14:59;22.40;99.90
60860;DHT22;46694;54.382;9.708;2023-07-20T10:18:18;22.50;99.90
60860;DHT22;46694;54.382;9.708;2023-07-20T10:21:03;22.00;99.90
60860;DHT22;46694;54.382;9.708;2023-07-20T10:23:46;21.40;99.90
60860;DHT22;46694;54.382;9.708;2023-07-20T10:26:26;20.70;99.90
60860;DHT22;46694;54.382;9.708;2023-07-20T10:29:06;20.00;99.90
60860;DHT22;46694;54.382;9.708;2023-07-20T10:31:46;19.50;99.90
60860;DHT22;46694;54.382;9.708;2023-07-20T10:34:26;19.20;99.90
60860;DHT22;46694;54.382;9.708;2023-07-20T10:37:06;19.20;99.90
60860;DHT22;46694;54.382;9.708;2023-07-20T10:39:46;19.50;99.90
60860;DHT22;46694;54.382;9.708;2023-07-20T10:42:33;20.20;99.90
60860;DHT22;46694;54.382;9.708;2023-07-20T10:45:13;21.10;99.90
60860;DHT22;46694;54.382;9.708;2023-07-20T10:47:55;21.90;99.90
60860;DHT22;46694;54.382;9.708;2023-07-20T10:50:35;22.40;99.90
60860;DHT22;46694;54.382;9.708;2023-07-20T10:53:17;22.60;99.90
60860;DHT22;46694;54.382;9.708;2023-07-20T10:56:27;22.60;99.90
60860;DHT22;46694;54.382;9.708;2023-07-20T11:02:09;22.70;99.90
60860;DHT22;46694;54.382;9.708;2023-07-20T11:04:49;22.90;99.90
60860;DHT22;46694;54.382;9.708;2023-07-20T11:07:38;23.10;99.90
60860;DHT22;46694;54.382;9.708;2023-07-20T11:10:18;23.10;99.90
60860;DHT22;46694;54.382;9.708;2023-07-20T11:13:22;23.00;99.90
60860;DHT22;46694;54.382;9.708;2023-07-20T11:16:03;22.70;99.90
60860;DHT22;46694;54.382;9.708;2023-07-20T11:22:17;22.90;99.90
60860;DHT22;46694;54.382;9.708;2023-07-20T11:25:03;23.00;99.90
60860;DHT22;46694;54.382;9.708;2023-07-20T11:27:46;23.10;99.90
60860;DHT22;46694;54.382;9.708;2023-07-20T11:30:33;23.10;99.90
60860;DHT22;46694;54.382;9.708;2023-07-20T11:33:13;23.00;99.90
60860;DHT22;46694;54.382;9.708;2023-07-20T11:35:56;23.30;99.90
60860;DHT22;46694;54.382;9.708;2023-07-20T11:39:05;23.70;99.90
60860;DHT22;46694;54.382;9.708;2023-07-20T11:44:29;23.50;99.90
60860;DHT22;46694;54.382;9.708;2023-07-20T11:47:11;23.70;99.90
60860;DHT22;46694;54.382;9.708;2023-07-20T11:49:53;23.70;99.80
60860;DHT22;46694;54.382;9.708;2023-07-20T11:52:33;23.70;99.80
60860;DHT22;46694;54.382;9.708;2023-07-20T11:55:14;23.90;99.70
60860;DHT22;46694;54.382;9.708;2023-07-20T11:58:08;24.00;99.70
60860;DHT22;46694;54.382;9.708;2023-07-20T12:00:48;24.30;99.30
60860;DHT22;46694;54.382;9.708;2023-07-20T12:03:27;24.20;99.00
60860;DHT22;46694;54.382;9.708;2023-07-20T12:06:10;24.30;98.80
60860;DHT22;46694;54.382;9.708;2023-07-20T12:08:53;24.30;98.90
60860;DHT22;46694;54.382;9.708;2023-07-20T12:11:36;24.10;99.00
60860;DHT22;46694;54.382;9.708;2023-07-20T12:14:17;24.10;99.20
60860;DHT22;46694;54.382;9.708;2023-07-20T12:16:56;24.30;99.20
60860;DHT22;46694;54.382;9.708;2023-07-20T12:19:38;24.10;98.80
60860;DHT22;46694;54.382;9.708;2023-07-20T12:22:19;24.00;99.50
60860;DHT22;46694;54.382;9.708;2023-07-20T12:24:58;24.10;99.20
60860;DHT22;46694;54.382;9.708;2023-07-20T12:27:38;23.90;99.60
60860;DHT22;46694;54.382;9.708;2023-07-20T12:30:18;23.60;99.30
60860;DHT22;46694;54.382;9.708;2023-07-20T12:32:57;23.10;99.80
60860;DHT22;46694;54.382;9.708;2023-07-20T12:35:37;23.10;99.90
60860;DHT22;46694;54.382;9.708;2023-07-20T12:38:16;23.20;99.90
60860;DHT22;46694;54.382;9.708;2023-07-20T12:40:57;23.50;99.10
60860;DHT22;46694;54.382;9.708;2023-07-20T12:43:37;23.30;98.50
60860;DHT22;46694;54.382;9.708;2023-07-20T12:46:17;23.30;98.50
60860;DHT22;46694;54.382;9.708;2023-07-20T12:48:56;23.20;98.10
60860;DHT22;46694;54.382;9.708;2023-07-20T12:51:36;23.10;97.80
60860;DHT22;46694;54.382;9.708;2023-07-20T12:54:15;23.10;97.90
60860;DHT22;46694;54.382;9.708;2023-07-20T12:56:55;22.80;98.10
60860;DHT22;46694;54.382;9.708;2023-07-20T12:59:35;22.80;98.50
60860;DHT22;46694;54.382;9.708;2023-07-20T13:02:15;22.70;98.50
60860;DHT22;46694;54.382;9.708;2023-07-20T13:04:54;22.60;98.70
60860;DHT22;46694;54.382;9.708;2023-07-20T13:07:36;22.70;98.90
60860;DHT22;46694;54.382;9.708;2023-07-20T13:10:17;22.60;98.90
60860;DHT22;46694;54.382;9.708;2023-07-20T13:12:57;22.50;99.40
60860;DHT22;46694;54.382;9.708;2023-07-20T13:15:44;22.50;99.50
60860;DHT22;46694;54.382;9.708;2023-07-20T13:18:25;22.50;99.80
60860;DHT22;46694;54.382;9.708;2023-07-20T13:21:04;22.60;99.80
60860;DHT22;46694;54.382;9.708;2023-07-20T13:23:49;22.70;99.70
60860;DHT22;46694;54.382;9.708;2023-07-20T13:26:28;22.80;99.60
60860;DHT22;46694;54.382;9.708;2023-07-20T13:29:08;23.00;99.50
60860;DHT22;46694;54.382;9.708;2023-07-20T13:31:47;23.00;99.60
60860;DHT22;46694;54.382;9.708;2023-07-20T13:34:27;23.20;99.60
60860;DHT22;46694;54.382;9.708;2023-07-20T13:37:08;23.30;99.10
60860;DHT22;46694;54.382;9.708;2023-07-20T13:39:47;23.20;98.80
60860;DHT22;46694;54.382;9.708;2023-07-20T13:42:27;23.20;98.70
60860;DHT22;46694;54.382;9.708;2023-07-20T13:45:07;22.50;97.70
60860;DHT22;46694;54.382;9.708;2023-07-20T13:47:46;22.50;97.90
60860;DHT22;46694;54.382;9.708;2023-07-20T13:50:26;22.20;97.90
60860;DHT22;46694;54.382;9.708;2023-07-20T13:53:07;21.80;98.10
60860;DHT22;46694;54.382;9.708;2023-07-20T13:55:47;21.60;98.80
60860;DHT22;46694;54.382;9.708;2023-07-20T13:58:26;21.60;98.80
60860;DHT22;46694;54.382;9.708;2023-07-20T14:01:06;21.80;98.90
60860;DHT22;46694;54.382;9.708;2023-07-20T14:03:45;21.90;98.50
60860;DHT22;46694;54.382;9.708;2023-07-20T14:06:25;21.70;98.10
60860;DHT22;46694;54.382;9.708;2023-07-20T14:09:05;21.50;98.00
60860;DHT22;46694;54.382;9.708;2023-07-20T14:11:45;21.40;98.80
60860;DHT22;46694;54.382;9.708;2023-07-20T14:14:24;21.40;99.50
60860;DHT22;46694;54.382;9.708;2023-07-20T14:17:04;21.30;99.90
60860;DHT22;46694;54.382;9.708;2023-07-20T14:19:43;21.40;99.90
60860;DHT22;46694;54.382;9.708;2023-07-20T14:22:23;21.50;99.90
60860;DHT22;46694;54.382;9.708;2023-07-20T14:25:03;21.70;99.90
60860;DHT22;46694;54.382;9.708;2023-07-20T14:27:43;21.80;99.90
60860;DHT22;46694;54.382;9.708;2023-07-20T14:30:22;21.90;99.90
60860;DHT22;46694;54.382;9.708;2023-07-20T14:33:03;21.80;99.90
60860;DHT22;46694;54.382;9.708;2023-07-20T14:35:43;21.50;99.90
60860;DHT22;46694;54.382;9.708;2023-07-20T14:38:22;21.30;99.90
60860;DHT22;46694;54.382;9.708;2023-07-20T14:41:03;21.00;99.90
60860;DHT22;46694;54.382;9.708;2023-07-20T14:43:45;20.90;99.90
60860;DHT22;46694;54.382;9.708;2023-07-20T14:46:24;21.00;99.90
60860;DHT22;46694;54.382;9.708;2023-07-20T14:49:04;21.00;99.90
60860;DHT22;46694;54.382;9.708;2023-07-20T14:51:44;21.00;99.90
60860;DHT22;46694;54.382;9.708;2023-07-20T14:54:25;20.80;99.90
60860;DHT22;46694;54.382;9.708;2023-07-20T14:57:05;20.70;99.90
60860;DHT22;46694;54.382;9.708;2023-07-20T14:59:52;20.60;99.90
60860;DHT22;46694;54.382;9.708;2023-07-20T15:02:32;20.50;99.90
60860;DHT22;46694;54.382;9.708;2023-07-20T15:05:11;20.50;99.90
60860;DHT22;46694;54.382;9.708;2023-07-20T15:07:51;20.50;99.90
60860;DHT22;46694;54.382;9.708;2023-07-20T15:10:30;20.50;99.90
60860;DHT22;46694;54.382;9.708;2023-07-20T15:13:11;20.40;99.90
60860;DHT22;46694;54.382;9.708;2023-07-20T15:15:50;20.40;99.90
60860;DHT22;46694;54.382;9.708;2023-07-20T15:18:30;20.60;99.90
60860;DHT22;46694;54.382;9.708;2023-07-20T15:21:10;20.70;99.90
60860;DHT22;46694;54.382;9.708;2023-07-20T15:23:49;20.70;99.90
60860;DHT22;46694;54.382;9.708;2023-07-20T15:26:29;20.80;99.90
60860;DHT22;46694;54.382;9.708;2023-07-20T15:29:10;20.70;99.90
60860;DHT22;46694;54.382;9.708;2023-07-20T15:31:50;20.60;99.90
60860;DHT22;46694;54.382;9.708;2023-07-20T15:34:29;20.40;99.90
60860;DHT22;46694;54.382;9.708;2023-07-20T15:37:10;20.30;99.90
60860;DHT22;46694;54.382;9.708;2023-07-20T15:39:50;20.30;99.90
60860;DHT22;46694;54.382;9.708;2023-07-20T15:42:31;20.30;99.90
60860;DHT22;46694;54.382;9.708;2023-07-20T15:45:10;20.30;99.90
60860;DHT22;46694;54.382;9.708;2023-07-20T15:47:50;20.30;99.90
60860;DHT22;46694;54.382;9.708;2023-07-20T15:50:30;20.30;99.90
60860;DHT22;46694;54.382;9.708;2023-07-20T15:53:09;20.20;99.90
60860;DHT22;46694;54.382;9.708;2023-07-20T15:55:53;20.10;99.90
60860;DHT22;46694;54.382;9.708;2023-07-20T15:58:35;20.00;99.90
60860;DHT22;46694;54.382;9.708;2023-07-20T16:01:14;20.00;99.90
60860;DHT22;46694;54.382;9.708;2023-07-20T16:03:54;19.90;99.90
60860;DHT22;46694;54.382;9.708;2023-07-20T16:06:34;20.00;99.90
60860;DHT22;46694;54.382;9.708;2023-07-20T16:09:14;20.00;99.90
60860;DHT22;46694;54.382;9.708;2023-07-20T16:11:54;20.10;99.90
60860;DHT22;46694;54.382;9.708;2023-07-20T16:14:33;20.10;99.90
60860;DHT22;46694;54.382;9.708;2023-07-20T16:17:13;20.20;99.90
60860;DHT22;46694;54.382;9.708;2023-07-20T16:19:57;20.20;99.90
60860;DHT22;46694;54.382;9.708;2023-07-20T16:22:37;20.10;99.90
60860;DHT22;46694;54.382;9.708;2023-07-20T16:25:17;20.10;99.90
60860;DHT22;46694;54.382;9.708;2023-07-20T16:27:57;20.00;99.90
60860;DHT22;46694;54.382;9.708;2023-07-20T16:30:36;19.90;99.90
60860;DHT22;46694;54.382;9.708;2023-07-20T16:33:16;19.90;99.90
60860;DHT22;46694;54.382;9.708;2023-07-20T16:35:56;19.80;99.90
60860;DHT22;46694;54.382;9.708;2023-07-20T16:38:36;19.80;99.90
60860;DHT22;46694;54.382;9.708;2023-07-20T16:41:18;19.70;99.90
60860;DHT22;46694;54.382;9.708;2023-07-20T16:43:57;19.70;99.90
60860;DHT22;46694;54.382;9.708;2023-07-20T16:46:50;19.70;99.90
60860;DHT22;46694;54.382;9.708;2023-07-20T16:49:30;19.70;99.90
60860;DHT22;46694;54.382;9.708;2023-07-20T16:52:10;19.50;99.90
60860;DHT22;46694;54.382;9.708;2023-07-20T16:54:49;19.30;99.90
60860;DHT22;46694;54.382;9.708;2023-07-20T16:57:29;19.30;99.90
60860;DHT22;46694;54.382;9.708;2023-07-20T17:00:09;19.20;99.90
60860;DHT22;46694;54.382;9.708;2023-07-20T17:02:54;19.20;99.90
60860;DHT22;46694;54.382;9.708;2023-07-20T17:05:33;19.10;99.90
60860;DHT22;46694;54.382;9.708;2023-07-20T17:08:13;19.20;99.90
60860;DHT22;46694;54.382;9.708;2023-07-20T17:10:53;19.20;99.90
60860;DHT22;46694;54.382;9.708;2023-07-20T17:13:33;19.30;99.90